createdAt,value
2018-05-10T00:02:14.885Z,99886.80
2018-05-10T00:09:21.542Z,99888.47
2018-05-10T00:11:26.328Z,99893.09
2018-05-10T00:13:29.694Z,99893.55
2018-05-10T00:15:33.837Z,99897.43
2018-05-10T00:17:37.167Z,99890.14
2018-05-10T00:19:40.532Z,99888.41
2018-05-10T00:21:43.925Z,99890.09
2018-05-10T00:23:47.321Z,99887.56
2018-05-10T00:25:50.825Z,99886.28
2018-05-10T00:27:54.906Z,99880.56
2018-05-10T00:29:58.296Z,99887.12
2018-05-10T00:32:01.708Z,99896.55
2018-05-10T00:34:05.040Z,99901.39
2018-05-10T00:36:08.358Z,99897.45
2018-05-10T00:38:11.781Z,99899.51
2018-05-10T00:40:15.216Z,99906.88
2018-05-10T00:42:19.342Z,99909.16
2018-05-10T00:44:23.481Z,99915.14
2018-05-10T00:46:27.615Z,99912.51
2018-05-10T00:48:31.110Z,99910.41
2018-05-10T00:50:34.552Z,99923.20
2018-05-10T00:52:37.964Z,99917.67
2018-05-10T00:54:57.457Z,99916.72
2018-05-10T00:57:00.821Z,99929.52
2018-05-10T00:59:04.173Z,99936.23
2018-05-10T01:01:07.491Z,99933.52
2018-05-10T01:03:10.998Z,99932.99
2018-05-10T01:05:14.381Z,99926.66
2018-05-10T01:07:17.719Z,99930.53
2018-05-10T01:09:21.100Z,99929.61
2018-05-10T01:11:24.526Z,99935.97
2018-05-10T01:13:28.652Z,99917.94
2018-05-10T01:15:32.252Z,99938.56
2018-05-10T01:17:35.619Z,99935.52
2018-05-10T01:19:38.974Z,99937.63
2018-05-10T01:21:42.359Z,99941.55
2018-05-10T01:23:45.681Z,99942.66
2018-05-10T01:25:49.017Z,99946.08
2018-05-10T01:27:52.396Z,99949.44
2018-05-10T01:29:55.763Z,99952.05
2018-05-10T01:31:59.131Z,99941.98
2018-05-10T01:34:02.481Z,99943.19
2018-05-10T01:36:16.173Z,99944.35
2018-05-10T01:38:19.489Z,99951.77
2018-05-10T01:40:22.867Z,99949.02
2018-05-10T01:42:26.212Z,99947.33
2018-05-10T01:44:29.569Z,99947.79
2018-05-10T01:46:32.986Z,99941.23
2018-05-10T01:48:36.416Z,99946.17
2018-05-10T01:50:39.747Z,99949.67
2018-05-10T01:52:43.124Z,99955.25
2018-05-10T01:54:46.432Z,99947.28
2018-05-10T01:56:50.540Z,99958.94
2018-05-10T01:58:54.042Z,99960.56
2018-05-10T02:00:58.174Z,99954.67
2018-05-10T02:03:01.533Z,99952.38
2018-05-10T02:05:04.897Z,99958.73
2018-05-10T02:07:08.249Z,99959.31
2018-05-10T02:09:11.609Z,99965.02
2018-05-10T02:11:14.948Z,99965.67
2018-05-10T02:13:19.771Z,99962.66
2018-05-10T02:15:23.175Z,99979.05
2018-05-10T02:17:26.542Z,99975.30
2018-05-10T02:19:30.638Z,99969.56
2018-05-10T02:21:34.736Z,99987.53
2018-05-10T02:23:38.149Z,99986.44
2018-05-10T02:25:41.498Z,99985.08
2018-05-10T02:27:45.979Z,99986.39
2018-05-10T02:29:49.327Z,100000.16
2018-05-10T02:31:52.636Z,99975.92
2018-05-10T02:33:56.351Z,99986.16
2018-05-10T02:35:59.726Z,99976.34
2018-05-10T02:38:03.076Z,99986.07
2018-05-10T02:40:06.431Z,99996.42
2018-05-10T02:42:09.775Z,99992.67
2018-05-10T02:44:13.101Z,99988.06
2018-05-10T02:46:16.528Z,100001.78
2018-05-10T02:48:20.719Z,100002.81
2018-05-10T02:50:24.076Z,100002.13
2018-05-10T02:52:27.421Z,100000.82
2018-05-10T02:54:30.746Z,100010.43
2018-05-10T02:56:34.192Z,100005.41
2018-05-10T02:58:39.058Z,99997.67
2018-05-10T03:00:42.425Z,100008.59
2018-05-10T03:02:46.511Z,100021.03
2018-05-10T03:04:50.639Z,100016.37
2018-05-10T03:06:53.980Z,100020.58
2018-05-10T03:08:57.351Z,100028.83
2018-05-10T03:11:00.721Z,100021.05
2018-05-10T03:13:04.774Z,100038.28
2018-05-10T03:15:08.910Z,100035.09
2018-05-10T03:17:12.292Z,100031.11
2018-05-10T03:19:15.646Z,100035.48
2018-05-10T03:21:18.985Z,100028.95
2018-05-10T03:23:23.138Z,100032.39
2018-05-10T03:25:26.603Z,100035.58
2018-05-10T03:27:30.014Z,100032.64
2018-05-10T03:29:33.399Z,100037.69
2018-05-10T03:31:36.779Z,100042.02
2018-05-10T03:33:40.905Z,100036.56
2018-05-10T03:35:44.754Z,100041.69
2018-05-10T03:37:48.116Z,100043.78
2018-05-10T03:39:51.550Z,100040.71
2018-05-10T03:41:54.939Z,100039.86
2018-05-10T03:43:58.323Z,100045.27
2018-05-10T03:46:01.659Z,100044.67
2018-05-10T03:48:05.841Z,100048.94
2018-05-10T03:50:09.313Z,100054.95
2018-05-10T03:52:12.713Z,100066.27
2018-05-10T03:54:16.061Z,100067.42
2018-05-10T03:56:23.316Z,100064.01
2018-05-10T03:58:26.682Z,100065.50
2018-05-10T04:00:30.824Z,100069.96
2018-05-10T04:05:49.861Z,100056.19
2018-05-10T04:10:59.071Z,100063.02
2018-05-10T04:13:03.201Z,100066.48
2018-05-10T04:15:06.552Z,100071.91
2018-05-10T04:17:10.673Z,100067.28
2018-05-10T04:19:14.029Z,100079.11
2018-05-10T04:21:17.452Z,100072.36
2018-05-10T04:23:20.787Z,100075.91
2018-05-10T04:25:24.180Z,100083.78
2018-05-10T04:27:27.535Z,100082.16
2018-05-10T04:29:31.614Z,100079.53
2018-05-10T04:31:34.943Z,100080.30
2018-05-10T04:33:38.299Z,100093.31
2018-05-10T04:35:41.622Z,100083.84
2018-05-10T04:37:46.050Z,100089.95
2018-05-10T04:39:49.660Z,100091.52
2018-05-10T04:41:53.008Z,100091.16
2018-05-10T04:43:56.392Z,100092.81
2018-05-10T04:45:59.913Z,100104.56
2018-05-10T04:48:04.011Z,100106.13
2018-05-10T04:50:07.425Z,100104.63
2018-05-10T04:52:11.951Z,100102.88
2018-05-10T04:54:15.340Z,100117.20
2018-05-10T04:56:18.709Z,100119.38
2018-05-10T04:58:22.116Z,100121.87
2018-05-10T05:00:25.476Z,100118.20
2018-05-10T05:02:28.850Z,100124.75
2018-05-10T05:04:33.106Z,100124.41
2018-05-10T05:06:36.435Z,100128.01
2018-05-10T05:08:39.786Z,100129.81
2018-05-10T05:10:43.193Z,100130.49
2018-05-10T05:12:46.599Z,100127.47
2018-05-10T05:14:50.391Z,100130.31
2018-05-10T05:16:54.559Z,100122.16
2018-05-10T05:18:57.902Z,100135.61
2018-05-10T05:21:02.004Z,100136.72
2018-05-10T05:23:06.178Z,100141.80
2018-05-10T05:25:09.559Z,100136.39
2018-05-10T05:27:12.913Z,100144.23
2018-05-10T05:29:18.635Z,100138.97
2018-05-10T05:31:21.993Z,100138.42
2018-05-10T05:33:25.350Z,100146.16
2018-05-10T05:35:29.433Z,100145.41
2018-05-10T05:37:32.817Z,100152.17
2018-05-10T05:39:36.157Z,100157.80
2018-05-10T05:41:39.523Z,100168.95
2018-05-10T05:43:42.852Z,100175.66
2018-05-10T05:45:46.181Z,100174.12
2018-05-10T05:47:50.569Z,100174.12
2018-05-10T05:49:54.132Z,100185.81
2018-05-10T05:51:57.449Z,100181.38
2018-05-10T05:54:00.808Z,100184.53
2018-05-10T05:56:04.151Z,100183.16
2018-05-10T05:58:07.503Z,100184.18
2018-05-10T06:00:10.883Z,100186.42
2018-05-10T06:02:14.989Z,100190.05
2018-05-10T06:04:18.313Z,100191.86
2018-05-10T06:06:21.670Z,100195.64
2018-05-10T06:08:25.050Z,100206.05
2018-05-10T06:10:28.451Z,100200.34
2018-05-10T06:12:31.880Z,100200.50
2018-05-10T06:14:35.223Z,100210.89
2018-05-10T06:16:38.580Z,100213.53
2018-05-10T06:18:41.976Z,100210.25
2018-05-10T06:20:45.334Z,100223.73
2018-05-10T06:22:48.716Z,100236.31
2018-05-10T06:24:52.286Z,100226.52
2018-05-10T06:26:55.671Z,100235.40
2018-05-10T06:28:59.091Z,100238.70
2018-05-10T06:31:02.468Z,100234.03
2018-05-10T06:33:05.782Z,100242.32
2018-05-10T06:35:09.925Z,100241.83
2018-05-10T06:37:13.272Z,100247.98
2018-05-10T06:39:16.737Z,100241.73
2018-05-10T06:41:20.129Z,100235.59
2018-05-10T06:43:23.623Z,100247.33
2018-05-10T06:45:26.988Z,100241.70
2018-05-10T06:47:30.540Z,100242.83
2018-05-10T06:49:33.951Z,100235.73
2018-05-10T06:51:37.332Z,100243.80
2018-05-10T06:53:40.689Z,100236.50
2018-05-10T06:55:44.199Z,100229.88
2018-05-10T06:57:47.607Z,100234.41
2018-05-10T06:59:51.138Z,100236.55
2018-05-10T07:01:54.549Z,100224.26
2018-05-10T07:03:57.954Z,100240.22
2018-05-10T07:06:03.022Z,100238.23
2018-05-10T07:08:08.543Z,100239.75
2018-05-10T07:10:13.564Z,100239.09
2018-05-10T07:12:16.995Z,100244.09
2018-05-10T07:14:20.382Z,100246.11
2018-05-10T07:16:24.283Z,100237.48
2018-05-10T07:18:27.686Z,100243.56
2018-05-10T07:20:31.090Z,100234.30
2018-05-10T07:22:34.690Z,100244.41
2018-05-10T07:24:38.888Z,100252.89
2018-05-10T07:26:42.512Z,100249.49
2018-05-10T07:28:46.311Z,100254.97
2018-05-10T07:30:50.123Z,100256.09
2018-05-10T07:32:53.641Z,100256.90
2018-05-10T07:34:57.872Z,100264.73
2018-05-10T07:37:01.887Z,100266.74
2018-05-10T07:39:06.240Z,100269.43
2018-05-10T07:41:10.952Z,100271.23
2018-05-10T07:43:14.474Z,100282.48
2018-05-10T07:45:18.052Z,100281.62
2018-05-10T07:47:21.488Z,100283.75
2018-05-10T07:49:25.027Z,100279.18
2018-05-10T07:51:29.224Z,100279.05
2018-05-10T07:53:32.561Z,100273.70
2018-05-10T07:55:35.934Z,100281.04
2018-05-10T07:57:40.060Z,100282.50
2018-05-10T07:59:44.174Z,100288.42
2018-05-10T08:01:48.417Z,100287.33
2018-05-10T08:03:52.545Z,100292.45
2018-05-10T08:05:55.907Z,100287.18
2018-05-10T08:07:59.630Z,100297.03
2018-05-10T08:10:03.508Z,100300.98
2018-05-10T08:12:06.965Z,100306.84
2018-05-10T08:14:11.257Z,100310.28
2018-05-10T08:16:16.134Z,100305.79
2018-05-10T08:18:19.556Z,100299.98
2018-05-10T08:20:23.020Z,100311.37
2018-05-10T08:22:26.463Z,100306.73
2018-05-10T08:24:29.858Z,100312.17
2018-05-10T08:26:35.647Z,100316.51
2018-05-10T08:28:45.063Z,100313.58
2018-05-10T08:30:49.035Z,100311.78
2018-05-10T08:32:52.393Z,100306.23
2018-05-10T08:34:55.904Z,100319.77
2018-05-10T08:37:00.166Z,100332.13
2018-05-10T08:39:03.690Z,100338.87
2018-05-10T08:41:07.883Z,100337.70
2018-05-10T08:43:11.277Z,100333.34
2018-05-10T08:45:14.660Z,100345.84
2018-05-10T08:47:18.868Z,100344.08
2018-05-10T08:49:23.016Z,100355.72
2018-05-10T08:51:26.365Z,100357.25
2018-05-10T08:53:29.764Z,100361.90
2018-05-10T08:55:33.141Z,100367.77
2018-05-10T08:57:36.673Z,100366.63
2018-05-10T08:59:40.191Z,100377.52
2018-05-10T09:01:43.885Z,100379.87
2018-05-10T09:03:47.253Z,100382.69
2018-05-10T09:05:50.823Z,100381.98
2018-05-10T09:07:54.182Z,100386.89
2018-05-10T09:09:57.612Z,100392.52
2018-05-10T09:12:00.992Z,100391.19
2018-05-10T09:14:05.159Z,100397.84
2018-05-10T09:16:09.095Z,100396.61
2018-05-10T09:18:13.221Z,100397.42
2018-05-10T09:20:19.679Z,100394.95
2018-05-10T09:22:23.689Z,100399.72
2018-05-10T09:24:27.871Z,100409.04
2018-05-10T09:26:31.559Z,100402.89
2018-05-10T09:28:36.036Z,100420.72
2018-05-10T09:30:39.787Z,100424.41
2018-05-10T09:32:43.227Z,100416.92
2018-05-10T09:34:46.652Z,100421.20
2018-05-10T09:36:50.073Z,100434.13
2018-05-10T09:38:53.402Z,100431.06
2018-05-10T09:40:56.792Z,100439.97
2018-05-10T09:43:00.145Z,100444.64
2018-05-10T09:45:03.537Z,100442.33
2018-05-10T09:47:06.904Z,100449.19
2018-05-10T09:49:10.285Z,100447.08
2018-05-10T09:51:18.299Z,100454.13
2018-05-10T09:53:22.339Z,100456.91
2018-05-10T09:55:25.751Z,100453.12
2018-05-10T09:57:29.097Z,100457.89
2018-05-10T09:59:32.560Z,100464.56
2018-05-10T10:01:36.218Z,100479.05
2018-05-10T10:03:39.983Z,100466.47
2018-05-10T10:05:43.396Z,100470.33
2018-05-10T10:07:46.937Z,100469.52
2018-05-10T10:09:50.481Z,100479.55
2018-05-10T10:11:53.922Z,100491.48
2018-05-10T10:13:57.629Z,100489.23
2018-05-10T10:16:01.837Z,100494.58
2018-05-10T10:18:05.429Z,100496.16
2018-05-10T10:20:08.945Z,100494.13
2018-05-10T10:22:12.278Z,100509.89
2018-05-10T10:24:15.824Z,100504.59
2018-05-10T10:26:19.259Z,100509.98
2018-05-10T10:28:24.964Z,100516.16
2018-05-10T10:30:28.511Z,100519.39
2018-05-10T10:32:31.914Z,100528.30
2018-05-10T10:34:35.295Z,100529.24
2018-05-10T10:36:38.741Z,100534.03
2018-05-10T10:38:42.143Z,100529.14
2018-05-10T10:40:45.564Z,100541.25
2018-05-10T10:42:48.926Z,100532.41
2018-05-10T10:44:53.245Z,100531.00
2018-05-10T10:46:57.241Z,100540.81
2018-05-10T10:49:00.738Z,100542.88
2018-05-10T10:51:05.037Z,100541.96
2018-05-10T10:53:09.300Z,100552.55
2018-05-10T10:55:14.266Z,100545.66
2018-05-10T10:57:17.737Z,100557.63
2018-05-10T10:59:23.108Z,100560.44
2018-05-10T11:01:31.312Z,100561.11
2018-05-10T11:03:35.807Z,100575.08
2018-05-10T11:05:41.582Z,100569.97
2018-05-10T11:07:46.418Z,100577.11
2018-05-10T11:09:50.905Z,100581.03
2018-05-10T11:11:54.354Z,100596.58
2018-05-10T11:13:57.908Z,100584.04
2018-05-10T11:16:02.149Z,100586.64
2018-05-10T11:18:05.971Z,100601.12
2018-05-10T11:20:09.904Z,100597.03
2018-05-10T11:22:13.325Z,100607.94
2018-05-10T11:24:16.738Z,100604.17
2018-05-10T11:26:20.245Z,100615.31
2018-05-10T11:28:23.762Z,100616.41
2018-05-10T11:30:27.172Z,100626.23
2018-05-10T11:32:30.634Z,100618.25
2018-05-10T11:34:34.079Z,100620.92
2018-05-10T11:36:37.527Z,100625.47
2018-05-10T11:38:40.932Z,100629.55
2018-05-10T11:40:45.176Z,100631.45
2018-05-10T11:42:58.029Z,100630.00
2018-05-10T11:45:01.622Z,100636.52
2018-05-10T11:47:05.029Z,100630.22
2018-05-10T11:49:13.795Z,100641.55
2018-05-10T11:51:18.060Z,100645.89
2018-05-10T11:53:21.550Z,100647.58
2018-05-10T11:55:26.742Z,100643.34
2018-05-10T11:57:33.557Z,100646.70
2018-05-10T11:59:38.101Z,100645.53
2018-05-10T12:03:58.818Z,100657.06
2018-05-10T12:06:10.697Z,100649.81
2018-05-10T12:08:14.619Z,100651.28
2018-05-10T12:10:21.414Z,100650.77
2018-05-10T12:23:58.875Z,100662.61
2018-05-10T12:26:10.699Z,100661.65
2018-05-10T12:28:33.300Z,100661.02
2018-05-10T12:30:37.001Z,100666.64
2018-05-10T12:32:41.176Z,100654.86
2018-05-10T12:34:49.284Z,100664.05
2018-05-10T12:36:53.231Z,100662.27
2018-05-10T12:38:58.433Z,100667.45
2018-05-10T12:41:07.860Z,100665.44
2018-05-10T12:43:12.328Z,100667.91
2018-05-10T12:45:16.160Z,100668.90
2018-05-10T12:47:20.369Z,100670.31
2018-05-10T12:49:25.859Z,100675.08
2018-05-10T12:51:31.039Z,100676.80
2018-05-10T12:53:34.438Z,100673.98
2018-05-10T12:55:46.119Z,100667.68
2018-05-10T12:57:49.550Z,100667.64
2018-05-10T12:59:53.145Z,100681.74
2018-05-10T13:01:56.669Z,100676.66
2018-05-10T13:04:00.939Z,100680.81
2018-05-10T13:06:08.961Z,100682.30
2018-05-10T13:10:29.679Z,100686.86
2018-05-10T13:12:33.967Z,100692.96
2018-05-10T13:14:37.399Z,100689.02
2018-05-10T13:16:40.785Z,100682.75
2018-05-10T13:18:53.038Z,100683.94
2018-05-10T13:20:56.813Z,100693.97
2018-05-10T13:23:02.274Z,100698.25
2018-05-10T13:25:06.312Z,100702.38
2018-05-10T13:27:10.950Z,100704.41
2018-05-10T13:29:18.337Z,100705.25
2018-05-10T13:31:22.452Z,100703.06
2018-05-10T13:33:28.272Z,100711.50
2018-05-10T13:35:31.765Z,100714.43
2018-05-10T13:37:37.024Z,100719.66
2018-05-10T13:39:40.536Z,100716.61
2018-05-10T13:41:44.028Z,100719.81
2018-05-10T13:46:08.629Z,100701.93
2018-05-10T13:48:13.710Z,100701.86
2018-05-10T13:50:19.113Z,100720.55
2018-05-10T13:52:25.806Z,100720.95
2018-05-10T13:54:33.857Z,100714.34
2018-05-10T13:56:40.918Z,100721.80
2018-05-10T13:58:50.481Z,100722.92
2018-05-10T14:00:54.208Z,100723.16
2018-05-10T14:03:02.251Z,100722.60
2018-05-10T14:05:09.560Z,100732.78
2018-05-10T14:07:20.243Z,100738.37
2018-05-10T14:09:27.259Z,100748.63
2018-05-10T14:11:35.408Z,100735.94
2018-05-10T14:13:41.015Z,100736.23
2018-05-10T14:15:44.498Z,100728.94
2018-05-10T14:17:48.723Z,100737.09
2018-05-10T14:19:52.450Z,100741.59
2018-05-10T14:21:56.069Z,100744.58
2018-05-10T14:23:59.470Z,100725.50
2018-05-10T14:26:03.069Z,100748.16
2018-05-10T14:28:06.506Z,100738.06
2018-05-10T14:30:10.913Z,100747.34
2018-05-10T14:32:15.179Z,100731.58
2018-05-10T14:34:18.685Z,100743.60
2018-05-10T14:36:22.454Z,100743.99
2018-05-10T14:38:25.892Z,100739.52
2018-05-10T14:40:29.772Z,100733.75
2018-05-10T14:42:33.154Z,100755.25
2018-05-10T14:44:36.740Z,100744.23
2018-05-10T14:46:41.088Z,100745.98
2018-05-10T14:48:44.458Z,100741.08
2018-05-10T14:50:47.844Z,100737.48
2018-05-10T14:52:51.208Z,100740.55
2018-05-10T14:54:54.706Z,100738.97
2018-05-10T14:56:58.134Z,100740.86
2018-05-10T14:59:01.518Z,100743.24
2018-05-10T15:01:04.967Z,100740.80
2018-05-10T15:03:08.335Z,100739.14
2018-05-10T15:05:11.818Z,100744.91
2018-05-10T15:07:15.243Z,100757.47
2018-05-10T15:09:18.655Z,100754.43
2018-05-10T15:11:22.057Z,100744.30
2018-05-10T15:13:27.147Z,100750.72
2018-05-10T15:15:30.679Z,100762.47
2018-05-10T15:17:34.041Z,100759.70
2018-05-10T15:19:38.124Z,100762.37
2018-05-10T15:21:41.526Z,100760.81
2018-05-10T15:23:45.086Z,100761.72
2018-05-10T15:25:48.511Z,100763.47
2018-05-10T15:27:51.921Z,100764.29
2018-05-10T15:29:55.450Z,100766.00
2018-05-10T15:31:59.095Z,100768.58
2018-05-10T15:34:02.762Z,100771.90
2018-05-10T15:36:06.133Z,100770.42
2018-05-10T15:38:09.790Z,100782.39
2018-05-10T15:40:13.239Z,100781.81
2018-05-10T15:42:16.630Z,100776.89
2018-05-10T15:44:20.118Z,100788.94
2018-05-10T15:46:23.893Z,100793.30
2018-05-10T15:48:27.927Z,100789.72
2018-05-10T15:50:31.637Z,100795.90
2018-05-10T15:52:36.232Z,100795.17
2018-05-10T15:54:39.690Z,100807.21
2018-05-10T15:56:43.176Z,100800.55
2018-05-10T15:58:47.241Z,100805.92
2018-05-10T16:00:52.957Z,100812.23
2018-05-10T16:02:58.411Z,100813.12
2018-05-10T16:05:02.868Z,100823.02
2018-05-10T16:07:08.761Z,100814.50
2018-05-10T16:09:12.172Z,100816.55
2018-05-10T16:11:15.652Z,100820.48
2018-05-10T16:13:19.082Z,100817.70
2018-05-10T16:15:23.026Z,100838.97
2018-05-10T16:17:27.033Z,100837.47
2018-05-10T16:19:30.455Z,100803.69
2018-05-10T16:21:33.844Z,100838.70
2018-05-10T16:23:38.142Z,100838.11
2018-05-10T16:25:42.449Z,100849.25
2018-05-10T16:27:46.751Z,100852.50
2018-05-10T16:29:51.014Z,100873.23
2018-05-10T16:31:56.045Z,100864.83
2018-05-10T16:33:59.462Z,100862.12
2018-05-10T16:36:03.044Z,100852.52
2018-05-10T16:38:06.581Z,100868.55
2018-05-10T16:40:10.077Z,100879.36
2018-05-10T16:42:13.913Z,100882.84
2018-05-10T16:44:17.381Z,100884.83
2018-05-10T16:46:22.669Z,100891.83
2018-05-10T16:48:26.225Z,100898.86
2018-05-10T16:50:29.633Z,100896.89
2018-05-10T16:52:33.066Z,100896.51
2018-05-10T16:54:36.499Z,100894.37
2018-05-10T16:56:41.457Z,100901.19
2018-05-10T16:58:45.718Z,100901.20
2018-05-10T17:00:49.104Z,100910.64
2018-05-10T17:02:53.642Z,100905.26
2018-05-10T17:04:57.287Z,100917.09
2018-05-10T17:07:00.839Z,100917.79
2018-05-10T17:09:05.767Z,100917.85
2018-05-10T17:11:11.689Z,100925.43
2018-05-10T17:13:15.190Z,100918.78
2018-05-10T17:15:19.670Z,100929.30
2018-05-10T17:17:23.049Z,100939.63
2018-05-10T17:19:26.487Z,100929.86
2018-05-10T17:21:30.287Z,100943.45
2018-05-10T17:23:33.676Z,100943.36
2018-05-10T17:25:37.126Z,100950.16
2018-05-10T17:27:40.544Z,100959.25
2018-05-10T17:29:46.966Z,100949.39
2018-05-10T17:31:50.809Z,100959.61
2018-05-10T17:33:54.208Z,100957.59
2018-05-10T17:35:58.356Z,100962.59
2018-05-10T17:38:01.813Z,100965.44
2018-05-10T17:40:05.742Z,100968.58
2018-05-10T17:42:09.908Z,100978.03
2018-05-10T17:44:13.455Z,100978.36
2018-05-10T17:46:20.548Z,100975.16
2018-05-10T17:48:24.487Z,100972.47
2018-05-10T17:50:28.104Z,100991.77
2018-05-10T17:52:31.802Z,100976.64
2018-05-10T17:54:35.191Z,100989.84
2018-05-10T17:56:38.601Z,100999.67
2018-05-10T17:58:42.060Z,101006.91
2018-05-10T18:00:45.648Z,101003.01
2018-05-10T18:02:49.184Z,101015.41
2018-05-10T18:04:52.578Z,101030.97
2018-05-10T18:06:56.026Z,101023.37
2018-05-10T18:09:03.496Z,101034.11
2018-05-10T18:11:08.081Z,101038.69
2018-05-10T18:13:13.031Z,101025.97
2018-05-10T18:15:20.276Z,101035.91
2018-05-10T18:17:27.643Z,101043.14
2018-05-10T18:19:31.199Z,101039.17
2018-05-10T18:23:48.952Z,101050.28
2018-05-10T18:25:52.776Z,101055.21
2018-05-10T18:27:56.334Z,101058.30
2018-05-10T18:30:00.069Z,101052.40
2018-05-10T18:32:08.051Z,101066.34
2018-05-10T18:34:12.674Z,101065.97
2018-05-10T18:36:18.999Z,101013.03
2018-05-10T18:38:22.941Z,101011.20
2018-05-10T18:40:26.734Z,101087.63
2018-05-10T18:42:30.220Z,101086.54
2018-05-10T18:44:34.673Z,101095.13
2018-05-10T18:46:39.195Z,101098.22
2018-05-10T18:48:44.759Z,101090.17
2018-05-10T18:50:49.243Z,101105.31
2018-05-10T18:52:53.303Z,101094.16
2018-05-10T18:55:00.350Z,101088.42
2018-05-10T18:57:04.303Z,101101.28
2018-05-10T18:59:08.159Z,101107.00
2018-05-10T19:01:11.697Z,101113.83
2018-05-10T19:03:15.217Z,101121.69
2018-05-10T19:05:18.569Z,101118.52
2018-05-10T19:07:23.096Z,101106.08
2018-05-10T19:09:26.395Z,101113.30
2018-05-10T19:11:29.946Z,101134.02
2018-05-10T19:13:34.286Z,101142.34
2018-05-10T19:15:38.471Z,101142.29
2018-05-10T19:17:45.475Z,101138.19
2018-05-10T19:19:49.027Z,101146.06
2018-05-10T19:21:52.563Z,101149.23
2018-05-10T19:23:56.055Z,101150.91
2018-05-10T19:26:00.299Z,101158.16
2018-05-10T19:28:03.810Z,101161.07
2018-05-10T19:30:08.521Z,101160.25
2018-05-10T19:32:14.265Z,101171.07
2018-05-10T19:34:19.203Z,101173.52
2018-05-10T19:36:24.289Z,101172.92
2018-05-10T19:38:28.342Z,101178.76
2018-05-10T19:40:33.227Z,101177.34
2018-05-10T19:42:37.425Z,101190.88
2018-05-10T19:44:41.394Z,101181.66
2018-05-10T19:46:45.092Z,101191.38
2018-05-10T19:48:52.980Z,101184.22
2018-05-10T19:50:58.457Z,101190.70
2018-05-10T19:53:03.244Z,101196.19
2018-05-10T19:55:07.016Z,101200.44
2018-05-10T19:57:10.939Z,101201.58
2018-05-10T19:59:14.796Z,101210.34
2018-05-10T20:01:18.733Z,101198.44
2018-05-10T20:03:22.442Z,101220.73
2018-05-10T20:05:27.378Z,101218.34
2018-05-10T20:07:31.277Z,101229.70
2018-05-10T20:09:35.563Z,101237.92
2018-05-10T20:11:39.138Z,101237.64
2018-05-10T20:13:44.508Z,101231.14
2018-05-10T20:15:48.797Z,101257.55
2018-05-10T20:17:52.604Z,101247.53
2018-05-10T20:20:00.486Z,101246.28
2018-05-10T20:22:07.228Z,101245.91
2018-05-10T20:24:10.861Z,101242.11
2018-05-10T20:26:14.316Z,101257.20
2018-05-10T20:28:18.553Z,101269.97
2018-05-10T20:30:22.119Z,101258.78
2018-05-10T20:32:26.575Z,101265.73
2018-05-10T20:34:30.132Z,101273.08
2018-05-10T20:36:33.652Z,101271.38
2018-05-10T20:38:37.067Z,101275.94
2018-05-10T20:40:41.326Z,101278.11
2018-05-10T20:42:44.916Z,101277.59
2018-05-10T20:44:49.340Z,101271.84
2018-05-10T20:46:54.041Z,101284.34
2018-05-10T20:48:57.630Z,101291.41
2018-05-10T20:51:02.002Z,101290.92
2018-05-10T20:53:06.255Z,101290.53
2018-05-10T20:55:13.160Z,101301.88
2018-05-10T20:57:17.862Z,101298.47
2018-05-10T20:59:21.963Z,101301.69
2018-05-10T21:01:25.293Z,101297.86
2018-05-10T21:03:29.664Z,101300.64
2018-05-10T21:05:33.139Z,101304.11
2018-05-10T21:07:37.298Z,101305.73
2018-05-10T21:09:40.964Z,101309.72
2018-05-10T21:11:44.458Z,101311.50
2018-05-10T21:13:47.859Z,101313.90
2018-05-10T21:15:51.614Z,101308.95
2018-05-10T21:17:55.214Z,101313.87
2018-05-10T21:20:00.290Z,101315.96
2018-05-10T21:22:04.494Z,101324.29
2018-05-10T21:24:09.760Z,101328.02
2018-05-10T21:26:13.354Z,101317.73
2018-05-10T21:28:16.840Z,101329.76
2018-05-10T21:30:20.726Z,101330.56
2018-05-10T21:32:24.489Z,101328.83
2018-05-10T21:34:28.169Z,101330.92
2018-05-10T21:36:31.556Z,101339.79
2018-05-10T21:38:35.140Z,101340.64
2018-05-10T21:40:38.650Z,101345.50
2018-05-10T21:42:42.113Z,101349.91
2018-05-10T21:44:45.626Z,101343.84
2018-05-10T21:46:49.181Z,101333.73
2018-05-10T21:48:52.539Z,101343.77
2018-05-10T21:50:55.895Z,101348.00
2018-05-10T21:52:59.322Z,101345.69
2018-05-10T21:55:03.013Z,101187.43
2018-05-10T21:57:07.516Z,101283.73
2018-05-10T21:59:11.599Z,101288.84
2018-05-10T22:01:15.057Z,101342.70
2018-05-10T22:03:18.509Z,101352.19
2018-05-10T22:05:22.086Z,101294.33
2018-05-10T22:07:26.278Z,101350.15
2018-05-10T22:09:31.181Z,101358.92
2018-05-10T22:11:34.621Z,101338.59
2018-05-10T22:13:38.001Z,101355.92
2018-05-10T22:15:41.369Z,101340.64
2018-05-10T22:17:45.098Z,101355.41
2018-05-10T22:19:49.889Z,101357.62
2018-05-10T22:21:53.497Z,101354.86
2018-05-10T22:23:56.920Z,101359.92
2018-05-10T22:26:00.945Z,101346.98
2018-05-10T22:28:04.553Z,101359.42
2018-05-10T22:30:08.113Z,101356.96
2018-05-10T22:32:11.552Z,101377.59
2018-05-10T22:34:14.909Z,101367.02
2018-05-10T22:36:19.681Z,101369.73
2018-05-10T22:38:23.256Z,101367.66
2018-05-10T22:40:26.660Z,101369.62
2018-05-10T22:42:30.100Z,101362.48
2018-05-10T22:44:33.492Z,101377.44
2018-05-10T22:46:37.864Z,101379.85
2018-05-10T22:48:41.258Z,101381.85
2018-05-10T22:50:44.624Z,101378.41
2018-05-10T22:52:48.748Z,101372.08
2018-05-10T22:54:52.130Z,101384.89
2018-05-10T22:56:56.269Z,101386.35
2018-05-10T22:58:59.732Z,101390.61
2018-05-10T23:01:03.910Z,101387.61
2018-05-10T23:03:08.007Z,101386.23
2018-05-10T23:05:11.399Z,101383.22
2018-05-10T23:07:14.818Z,101384.08
2018-05-10T23:09:18.186Z,101367.42
2018-05-10T23:11:21.579Z,101381.14
2018-05-10T23:13:25.130Z,101387.64
2018-05-10T23:15:28.668Z,101385.14
2018-05-10T23:17:33.003Z,101382.25
2018-05-10T23:19:37.401Z,101389.45
2018-05-10T23:21:40.793Z,101383.32
2018-05-10T23:23:44.150Z,101382.02
2018-05-10T23:25:47.545Z,101377.03
2018-05-10T23:27:51.013Z,101385.45
2018-05-10T23:29:54.430Z,101383.22
2018-05-10T23:31:58.037Z,101377.27
2018-05-10T23:34:01.402Z,101380.75
2018-05-10T23:36:04.855Z,101387.88
2018-05-10T23:40:51.321Z,101386.34
2018-05-10T23:42:55.477Z,101369.53
2018-05-10T23:44:58.839Z,101384.97
2018-05-10T23:47:02.214Z,101386.92
2018-05-10T23:49:05.583Z,101326.67
2018-05-10T23:51:09.015Z,101306.70
2018-05-10T23:53:12.420Z,101387.89
2018-05-10T23:55:16.224Z,101169.37
2018-05-10T23:57:19.744Z,101401.03
2018-05-10T23:59:23.242Z,101347.45
